Upland, Pennsylvania
Current Conditions -  °F | °C
As of 4:54 AM on Saturday 22 Nov 2014 (Local Time) from KPHL Reporting Station
Clear Clear  
Wind Chill: 17°   Ceiling: Unl
Heat Index: 25°   Visibility: 10mi
Dew Point: 12°   Wind: 7mph
Humidity: 58%   Direction: 260°W
Pressure: 30.53"   Gusts: NA
Location:  39.8695°N, 75.3931°W
Report Text: KPHL 220954Z 26006KT 10SM CLR M04/M11 A3053 RMK AO2 SLP337 T10391111 $
Loading
Personal Weather Stations






























Interactive Weather Map New forecast layout! Learn more

10-Day Weather Forecast

Advertisements
Track Severe Weather on mobile